sensor_id;sensor_type;location;lat;lon;timestamp;pressure;altitude;pressure_sealevel;temperature;humidity
76680;BME280;65597;51.520;-0.224;2023-05-18T00:01:47;102805.60;;;14.20;38.51
76680;BME280;65597;51.520;-0.224;2023-05-18T00:04:13;102809.49;;;13.95;38.57
76680;BME280;65597;51.520;-0.224;2023-05-18T00:06:38;102806.08;;;13.94;38.73
76680;BME280;65597;51.520;-0.224;2023-05-18T00:09:03;102805.47;;;14.14;38.40
76680;BME280;65597;51.520;-0.224;2023-05-18T00:11:29;102802.87;;;14.13;38.32
76680;BME280;65597;51.520;-0.224;2023-05-18T00:13:54;102805.94;;;13.92;38.46
76680;BME280;65597;51.520;-0.224;2023-05-18T00:16:20;102807.01;;;13.91;38.32
76680;BME280;65597;51.520;-0.224;2023-05-18T00:18:47;102806.85;;;13.90;38.33
76680;BME280;65597;51.520;-0.224;2023-05-18T00:21:11;102807.46;;;13.90;38.25
76680;BME280;65597;51.520;-0.224;2023-05-18T00:23:36;102805.33;;;13.90;38.17
76680;BME280;65597;51.520;-0.224;2023-05-18T00:26:01;102796.68;;;14.09;38.16
76680;BME280;65597;51.520;-0.224;2023-05-18T00:28:27;102795.06;;;14.05;37.78
76680;BME280;65597;51.520;-0.224;2023-05-18T00:30:52;102795.44;;;14.01;38.01
76680;BME280;65597;51.520;-0.224;2023-05-18T00:33:17;102795.75;;;13.75;38.01
76680;BME280;65597;51.520;-0.224;2023-05-18T00:35:42;102799.12;;;13.99;38.00
76680;BME280;65597;51.520;-0.224;2023-05-18T00:38:08;102800.57;;;13.70;37.47
76680;BME280;65597;51.520;-0.224;2023-05-18T00:40:33;102799.38;;;13.74;36.93
76680;BME280;65597;51.520;-0.224;2023-05-18T00:43:00;102798.09;;;13.72;36.94
76680;BME280;65597;51.520;-0.224;2023-05-18T00:45:24;102796.50;;;13.97;36.40
76680;BME280;65597;51.520;-0.224;2023-05-18T00:47:49;102793.66;;;13.72;35.68
76680;BME280;65597;51.520;-0.224;2023-05-18T00:50:15;102793.11;;;13.71;35.99
76680;BME280;65597;51.520;-0.224;2023-05-18T00:52:41;102791.78;;;13.95;36.31
76680;BME280;65597;51.520;-0.224;2023-05-18T00:55:07;102789.03;;;13.90;35.97
76680;BME280;65597;51.520;-0.224;2023-05-18T00:57:31;102789.07;;;13.90;35.96
76680;BME280;65597;51.520;-0.224;2023-05-18T00:59:56;102790.75;;;13.65;36.06
76680;BME280;65597;51.520;-0.224;2023-05-18T01:02:22;102791.94;;;13.88;35.52
76680;BME280;65597;51.520;-0.224;2023-05-18T01:04:47;102791.92;;;13.64;35.33
76680;BME280;65597;51.520;-0.224;2023-05-18T01:07:14;102795.52;;;13.64;35.19
76680;BME280;65597;51.520;-0.224;2023-05-18T01:09:38;102799.25;;;13.86;34.80
76680;BME280;65597;51.520;-0.224;2023-05-18T01:12:11;102801.15;;;13.61;35.21
76680;BME280;65597;51.520;-0.224;2023-05-18T01:14:33;102803.60;;;13.81;34.73
76680;BME280;65597;51.520;-0.224;2023-05-18T01:17:04;102804.52;;;13.83;35.23
76680;BME280;65597;51.520;-0.224;2023-05-18T01:21:53;102802.67;;;13.56;35.34
76680;BME280;65597;51.520;-0.224;2023-05-18T01:24:22;102804.74;;;13.81;35.00
76680;BME280;65597;51.520;-0.224;2023-05-18T01:26:39;102802.79;;;13.55;34.72
76680;BME280;65597;51.520;-0.224;2023-05-18T01:29:04;102800.24;;;13.54;34.76
76680;BME280;65597;51.520;-0.224;2023-05-18T01:31:28;102803.59;;;13.75;34.44
76680;BME280;65597;51.520;-0.224;2023-05-18T01:33:52;102804.06;;;13.73;34.63
76680;BME280;65597;51.520;-0.224;2023-05-18T01:36:17;102805.19;;;13.51;34.62
76680;BME280;65597;51.520;-0.224;2023-05-18T01:38:43;102805.09;;;13.54;34.72
76680;BME280;65597;51.520;-0.224;2023-05-18T01:41:12;102800.77;;;13.70;34.46
76680;BME280;65597;51.520;-0.224;2023-05-18T01:43:35;102799.94;;;13.73;34.55
76680;BME280;65597;51.520;-0.224;2023-05-18T01:46:03;102801.28;;;13.73;34.28
76680;BME280;65597;51.520;-0.224;2023-05-18T01:48:24;102801.89;;;13.48;34.24
76680;BME280;65597;51.520;-0.224;2023-05-18T01:50:51;102806.42;;;13.70;34.49
76680;BME280;65597;51.520;-0.224;2023-05-18T01:53:22;102806.86;;;13.66;34.41
76680;BME280;65597;51.520;-0.224;2023-05-18T01:55:42;102806.03;;;13.69;34.15
76680;BME280;65597;51.520;-0.224;2023-05-18T01:58:06;102806.37;;;13.68;34.02
76680;BME280;65597;51.520;-0.224;2023-05-18T02:00:31;102808.12;;;13.67;33.96
76680;BME280;65597;51.520;-0.224;2023-05-18T02:02:56;102806.52;;;13.66;34.29
76680;BME280;65597;51.520;-0.224;2023-05-18T02:05:21;102806.89;;;13.64;34.48
76680;BME280;65597;51.520;-0.224;2023-05-18T02:07:49;102810.10;;;13.66;34.26
76680;BME280;65597;51.520;-0.224;2023-05-18T02:10:13;102810.63;;;13.65;34.18
76680;BME280;65597;51.520;-0.224;2023-05-18T02:12:38;102812.04;;;13.61;34.56
76680;BME280;65597;51.520;-0.224;2023-05-18T02:15:05;102808.47;;;13.63;34.22
76680;BME280;65597;51.520;-0.224;2023-05-18T02:17:28;102806.06;;;13.61;34.49
76680;BME280;65597;51.520;-0.224;2023-05-18T02:19:54;102808.37;;;13.61;34.91
76680;BME280;65597;51.520;-0.224;2023-05-18T02:22:19;102808.65;;;13.60;35.07
76680;BME280;65597;51.520;-0.224;2023-05-18T02:24:45;102809.29;;;13.59;35.14
76680;BME280;65597;51.520;-0.224;2023-05-18T02:27:10;102809.03;;;13.57;35.08
76680;BME280;65597;51.520;-0.224;2023-05-18T02:29:36;102810.12;;;13.59;35.16
76680;BME280;65597;51.520;-0.224;2023-05-18T02:32:03;102808.94;;;13.57;35.30
76680;BME280;65597;51.520;-0.224;2023-05-18T02:34:26;102810.12;;;13.58;35.81
76680;BME280;65597;51.520;-0.224;2023-05-18T02:36:52;102813.72;;;13.54;35.63
76680;BME280;65597;51.520;-0.224;2023-05-18T02:39:17;102813.26;;;13.79;35.88
76680;BME280;65597;51.520;-0.224;2023-05-18T02:41:43;102813.38;;;13.45;36.35
76680;BME280;65597;51.520;-0.224;2023-05-18T02:44:09;102809.21;;;13.47;35.99
76680;BME280;65597;51.520;-0.224;2023-05-18T02:46:33;102803.73;;;13.43;35.77
76680;BME280;65597;51.520;-0.224;2023-05-18T02:48:59;102806.19;;;13.48;35.75
76680;BME280;65597;51.520;-0.224;2023-05-18T02:51:25;102803.17;;;13.42;35.95
76680;BME280;65597;51.520;-0.224;2023-05-18T02:53:50;102799.52;;;13.40;35.86
76680;BME280;65597;51.520;-0.224;2023-05-18T02:56:16;102797.42;;;13.40;36.06
76680;BME280;65597;51.520;-0.224;2023-05-18T02:58:40;102795.57;;;13.41;35.93
76680;BME280;65597;51.520;-0.224;2023-05-18T03:01:06;102792.35;;;13.36;35.99
76680;BME280;65597;51.520;-0.224;2023-05-18T03:03:31;102790.29;;;13.34;36.01
76680;BME280;65597;51.520;-0.224;2023-05-18T03:05:56;102788.35;;;13.59;36.08
76680;BME280;65597;51.520;-0.224;2023-05-18T03:08:22;102788.58;;;13.32;36.26
76680;BME280;65597;51.520;-0.224;2023-05-18T03:10:47;102788.70;;;13.35;35.79
76680;BME280;65597;51.520;-0.224;2023-05-18T03:13:13;102784.99;;;13.31;36.18
76680;BME280;65597;51.520;-0.224;2023-05-18T03:15:38;102786.79;;;13.35;36.19
76680;BME280;65597;51.520;-0.224;2023-05-18T03:18:03;102787.20;;;13.28;36.01
76680;BME280;65597;51.520;-0.224;2023-05-18T03:20:29;102783.30;;;13.28;36.08
76680;BME280;65597;51.520;-0.224;2023-05-18T03:22:54;102778.44;;;13.23;35.94
76680;BME280;65597;51.520;-0.224;2023-05-18T03:25:19;102775.52;;;13.27;35.61
76680;BME280;65597;51.520;-0.224;2023-05-18T03:27:45;102773.51;;;13.51;35.84
76680;BME280;65597;51.520;-0.224;2023-05-18T03:30:10;102772.61;;;13.32;35.75
76680;BME280;65597;51.520;-0.224;2023-05-18T03:32:35;102771.92;;;13.33;35.78
76680;BME280;65597;51.520;-0.224;2023-05-18T03:35:01;102770.53;;;13.33;35.58
76680;BME280;65597;51.520;-0.224;2023-05-18T03:37:26;102769.63;;;13.32;35.36
76680;BME280;65597;51.520;-0.224;2023-05-18T03:39:51;102768.34;;;13.31;35.30
76680;BME280;65597;51.520;-0.224;2023-05-18T03:42:17;102770.80;;;13.56;35.47
76680;BME280;65597;51.520;-0.224;2023-05-18T03:44:44;102770.17;;;13.27;35.29
76680;BME280;65597;51.520;-0.224;2023-05-18T03:47:08;102767.66;;;13.28;35.33
76680;BME280;65597;51.520;-0.224;2023-05-18T03:49:33;102770.61;;;13.27;35.67
76680;BME280;65597;51.520;-0.224;2023-05-18T03:51:58;102771.84;;;13.70;36.21
76680;BME280;65597;51.520;-0.224;2023-05-18T03:54:24;102773.45;;;13.24;36.10
76680;BME280;65597;51.520;-0.224;2023-05-18T03:56:52;102777.01;;;13.46;35.63
76680;BME280;65597;51.520;-0.224;2023-05-18T03:59:15;102775.19;;;13.20;35.67
76680;BME280;65597;51.520;-0.224;2023-05-18T04:01:40;102777.57;;;13.42;35.83
76680;BME280;65597;51.520;-0.224;2023-05-18T04:04:05;102776.53;;;13.16;35.85
76680;BME280;65597;51.520;-0.224;2023-05-18T04:06:31;102774.98;;;13.42;35.75
76680;BME280;65597;51.520;-0.224;2023-05-18T04:08:58;102775.74;;;13.15;35.92
76680;BME280;65597;51.520;-0.224;2023-05-18T04:11:21;102775.32;;;13.13;35.72
76680;BME280;65597;51.520;-0.224;2023-05-18T04:13:47;102775.43;;;13.38;35.73
76680;BME280;65597;51.520;-0.224;2023-05-18T04:16:12;102774.03;;;13.11;35.83
76680;BME280;65597;51.520;-0.224;2023-05-18T04:18:38;102769.38;;;13.14;35.83
76680;BME280;65597;51.520;-0.224;2023-05-18T04:21:04;102774.89;;;13.36;35.97
76680;BME280;65597;51.520;-0.224;2023-05-18T04:23:29;102775.80;;;13.13;36.16
76680;BME280;65597;51.520;-0.224;2023-05-18T04:25:54;102777.17;;;13.55;36.74
76680;BME280;65597;51.520;-0.224;2023-05-18T04:28:19;102777.32;;;13.49;36.40
76680;BME280;65597;51.520;-0.224;2023-05-18T04:30:45;102779.62;;;13.00;36.96
76680;BME280;65597;51.520;-0.224;2023-05-18T04:33:11;102778.66;;;12.96;37.03
76680;BME280;65597;51.520;-0.224;2023-05-18T04:35:36;102780.40;;;13.19;37.00
76680;BME280;65597;51.520;-0.224;2023-05-18T04:38:01;102782.36;;;13.05;37.08
76680;BME280;65597;51.520;-0.224;2023-05-18T04:40:27;102783.30;;;12.76;37.18
76680;BME280;65597;51.520;-0.224;2023-05-18T04:42:52;102786.21;;;13.05;37.14
76680;BME280;65597;51.520;-0.224;2023-05-18T04:45:18;102785.78;;;13.00;37.50
76680;BME280;65597;51.520;-0.224;2023-05-18T04:47:44;102785.45;;;13.00;36.89
76680;BME280;65597;51.520;-0.224;2023-05-18T04:50:09;102785.11;;;12.77;36.78
76680;BME280;65597;51.520;-0.224;2023-05-18T04:52:34;102784.12;;;12.79;36.77
76680;BME280;65597;51.520;-0.224;2023-05-18T04:54:59;102787.57;;;13.28;37.29
76680;BME280;65597;51.520;-0.224;2023-05-18T04:57:25;102790.84;;;12.98;37.70
76680;BME280;65597;51.520;-0.224;2023-05-18T04:59:50;102788.41;;;12.63;37.90
76680;BME280;65597;51.520;-0.224;2023-05-18T05:02:16;102792.11;;;12.81;37.98
76680;BME280;65597;51.520;-0.224;2023-05-18T05:04:41;102797.65;;;12.64;38.29
76680;BME280;65597;51.520;-0.224;2023-05-18T05:07:06;102795.38;;;12.94;38.02
76680;BME280;65597;51.520;-0.224;2023-05-18T05:09:33;102798.30;;;13.09;38.32
76680;BME280;65597;51.520;-0.224;2023-05-18T05:11:57;102796.89;;;12.84;38.03
76680;BME280;65597;51.520;-0.224;2023-05-18T05:14:22;102797.49;;;13.08;38.39
76680;BME280;65597;51.520;-0.224;2023-05-18T05:16:47;102797.11;;;13.07;38.45
76680;BME280;65597;51.520;-0.224;2023-05-18T05:19:13;102799.39;;;13.06;38.43
76680;BME280;65597;51.520;-0.224;2023-05-18T05:21:38;102802.67;;;13.05;38.73
76680;BME280;65597;51.520;-0.224;2023-05-18T05:24:04;102803.09;;;12.74;38.83
76680;BME280;65597;51.520;-0.224;2023-05-18T05:26:29;102801.05;;;13.04;38.79
76680;BME280;65597;51.520;-0.224;2023-05-18T05:28:54;102801.07;;;12.82;38.96
76680;BME280;65597;51.520;-0.224;2023-05-18T05:31:20;102803.60;;;12.60;38.74
76680;BME280;65597;51.520;-0.224;2023-05-18T05:33:45;102805.33;;;12.75;38.70
76680;BME280;65597;51.520;-0.224;2023-05-18T05:36:11;102802.66;;;12.96;38.93
76680;BME280;65597;51.520;-0.224;2023-05-18T05:38:36;102801.72;;;13.03;39.20
76680;BME280;65597;51.520;-0.224;2023-05-18T05:41:01;102802.42;;;12.80;38.96
76680;BME280;65597;51.520;-0.224;2023-05-18T05:43:27;102800.88;;;12.81;38.38
76680;BME280;65597;51.520;-0.224;2023-05-18T05:45:53;102803.47;;;13.10;38.33
76680;BME280;65597;51.520;-0.224;2023-05-18T05:48:17;102805.75;;;13.10;38.14
76680;BME280;65597;51.520;-0.224;2023-05-18T05:50:43;102806.97;;;12.87;38.47
76680;BME280;65597;51.520;-0.224;2023-05-18T05:53:08;102806.07;;;12.87;38.47
76680;BME280;65597;51.520;-0.224;2023-05-18T05:55:34;102807.25;;;13.07;39.06
76680;BME280;65597;51.520;-0.224;2023-05-18T05:57:58;102810.73;;;13.11;39.32
76680;BME280;65597;51.520;-0.224;2023-05-18T06:00:24;102809.80;;;12.61;38.94
76680;BME280;65597;51.520;-0.224;2023-05-18T06:02:49;102811.85;;;12.88;38.93
76680;BME280;65597;51.520;-0.224;2023-05-18T06:05:14;102811.80;;;12.67;39.32
76680;BME280;65597;51.520;-0.224;2023-05-18T06:07:40;102814.73;;;13.17;39.50
76680;BME280;65597;51.520;-0.224;2023-05-18T06:10:07;102814.56;;;12.69;39.09
76680;BME280;65597;51.520;-0.224;2023-05-18T06:12:30;102817.99;;;12.72;39.15
76680;BME280;65597;51.520;-0.224;2023-05-18T06:14:56;102819.34;;;12.99;39.01
76680;BME280;65597;51.520;-0.224;2023-05-18T06:17:21;102817.28;;;12.77;38.76
76680;BME280;65597;51.520;-0.224;2023-05-18T06:19:47;102819.09;;;13.04;38.43
76680;BME280;65597;51.520;-0.224;2023-05-18T06:22:12;102820.78;;;12.80;38.86
76680;BME280;65597;51.520;-0.224;2023-05-18T06:24:37;102821.05;;;12.92;37.90
76680;BME280;65597;51.520;-0.224;2023-05-18T06:27:03;102821.82;;;12.90;37.56
76680;BME280;65597;51.520;-0.224;2023-05-18T06:29:28;102823.79;;;12.75;38.03
76680;BME280;65597;51.520;-0.224;2023-05-18T06:31:53;102822.54;;;12.78;37.72
76680;BME280;65597;51.520;-0.224;2023-05-18T06:34:20;102825.84;;;12.86;37.35
76680;BME280;65597;51.520;-0.224;2023-05-18T06:36:44;102827.15;;;12.91;37.37
76680;BME280;65597;51.520;-0.224;2023-05-18T06:39:09;102828.25;;;13.45;38.46
76680;BME280;65597;51.520;-0.224;2023-05-18T06:41:35;102826.41;;;13.26;36.99
76680;BME280;65597;51.520;-0.224;2023-05-18T06:44:00;102826.99;;;13.26;37.27
76680;BME280;65597;51.520;-0.224;2023-05-18T06:46:25;102825.74;;;13.04;36.18
76680;BME280;65597;51.520;-0.224;2023-05-18T06:48:51;102823.43;;;13.07;35.47
76680;BME280;65597;51.520;-0.224;2023-05-18T06:51:16;102820.70;;;13.12;39.49
76680;BME280;65597;51.520;-0.224;2023-05-18T06:53:41;102820.01;;;13.19;36.64
76680;BME280;65597;51.520;-0.224;2023-05-18T06:56:06;102820.52;;;13.12;34.76
76680;BME280;65597;51.520;-0.224;2023-05-18T06:58:33;102826.35;;;13.41;34.02
76680;BME280;65597;51.520;-0.224;2023-05-18T07:00:57;102829.34;;;13.08;33.27
76680;BME280;65597;51.520;-0.224;2023-05-18T07:03:23;102829.12;;;13.14;33.63
76680;BME280;65597;51.520;-0.224;2023-05-18T07:05:48;102829.40;;;13.12;34.08
76680;BME280;65597;51.520;-0.224;2023-05-18T07:08:14;102828.01;;;13.03;33.58
76680;BME280;65597;51.520;-0.224;2023-05-18T07:10:41;102828.01;;;13.00;33.88
76680;BME280;65597;51.520;-0.224;2023-05-18T07:13:04;102829.54;;;13.37;33.89
76680;BME280;65597;51.520;-0.224;2023-05-18T07:15:30;102834.11;;;13.04;33.60
76680;BME280;65597;51.520;-0.224;2023-05-18T07:17:55;102834.64;;;13.13;33.96
76680;BME280;65597;51.520;-0.224;2023-05-18T07:20:21;102837.86;;;13.20;34.25
76680;BME280;65597;51.520;-0.224;2023-05-18T07:22:46;102839.05;;;13.48;34.97
76680;BME280;65597;51.520;-0.224;2023-05-18T07:25:11;102843.26;;;12.99;35.59
76680;BME280;65597;51.520;-0.224;2023-05-18T07:27:37;102845.86;;;12.79;35.75
76680;BME280;65597;51.520;-0.224;2023-05-18T07:30:03;102847.28;;;12.71;34.85
76680;BME280;65597;51.520;-0.224;2023-05-18T07:32:27;102850.07;;;12.45;35.37
76680;BME280;65597;51.520;-0.224;2023-05-18T07:34:53;102852.53;;;12.63;35.21
76680;BME280;65597;51.520;-0.224;2023-05-18T07:37:18;102855.28;;;13.00;34.83
76680;BME280;65597;51.520;-0.224;2023-05-18T07:39:44;102854.71;;;12.96;35.51
76680;BME280;65597;51.520;-0.224;2023-05-18T07:42:09;102854.53;;;12.52;34.83
76680;BME280;65597;51.520;-0.224;2023-05-18T07:44:35;102852.52;;;12.97;34.21
76680;BME280;65597;51.520;-0.224;2023-05-18T07:47:00;102851.03;;;13.08;34.42
76680;BME280;65597;51.520;-0.224;2023-05-18T07:49:26;102854.72;;;12.81;34.54
76680;BME280;65597;51.520;-0.224;2023-05-18T07:51:51;102850.29;;;12.97;34.49
76680;BME280;65597;51.520;-0.224;2023-05-18T07:54:16;102853.38;;;12.82;35.32
76680;BME280;65597;51.520;-0.224;2023-05-18T07:56:41;102852.30;;;13.07;35.33
76680;BME280;65597;51.520;-0.224;2023-05-18T07:59:09;102852.21;;;12.92;35.04
76680;BME280;65597;51.520;-0.224;2023-05-18T08:01:33;102853.53;;;13.26;34.84
76680;BME280;65597;51.520;-0.224;2023-05-18T08:03:58;102852.67;;;13.04;34.64
76680;BME280;65597;51.520;-0.224;2023-05-18T08:06:23;102855.16;;;13.44;34.85
76680;BME280;65597;51.520;-0.224;2023-05-18T08:08:49;102854.07;;;13.19;37.36
76680;BME280;65597;51.520;-0.224;2023-05-18T08:11:17;102854.48;;;13.29;36.27
76680;BME280;65597;51.520;-0.224;2023-05-18T08:13:40;102855.15;;;13.34;36.27
76680;BME280;65597;51.520;-0.224;2023-05-18T08:16:05;102856.07;;;13.40;35.99
76680;BME280;65597;51.520;-0.224;2023-05-18T08:18:30;102851.65;;;13.27;36.03
76680;BME280;65597;51.520;-0.224;2023-05-18T08:20:56;102849.48;;;13.48;37.08
76680;BME280;65597;51.520;-0.224;2023-05-18T08:23:23;102845.75;;;13.60;36.78
76680;BME280;65597;51.520;-0.224;2023-05-18T08:25:47;102845.16;;;13.64;36.23
76680;BME280;65597;51.520;-0.224;2023-05-18T08:28:13;102842.62;;;13.32;36.16
76680;BME280;65597;51.520;-0.224;2023-05-18T08:30:38;102841.05;;;13.50;36.17
76680;BME280;65597;51.520;-0.224;2023-05-18T08:33:04;102840.66;;;13.45;35.68
76680;BME280;65597;51.520;-0.224;2023-05-18T08:35:30;102837.64;;;13.43;35.81
76680;BME280;65597;51.520;-0.224;2023-05-18T08:37:54;102837.17;;;13.39;36.01
76680;BME280;65597;51.520;-0.224;2023-05-18T08:40:20;102834.54;;;13.68;37.06
76680;BME280;65597;51.520;-0.224;2023-05-18T08:42:50;102834.01;;;13.52;36.96
76680;BME280;65597;51.520;-0.224;2023-05-18T08:45:14;102835.10;;;13.58;37.06
76680;BME280;65597;51.520;-0.224;2023-05-18T08:47:37;102830.51;;;13.70;37.20
76680;BME280;65597;51.520;-0.224;2023-05-18T08:50:04;102828.29;;;13.89;37.14
76680;BME280;65597;51.520;-0.224;2023-05-18T08:52:29;102826.42;;;13.97;37.65
76680;BME280;65597;51.520;-0.224;2023-05-18T08:54:53;102831.80;;;13.93;37.78
76680;BME280;65597;51.520;-0.224;2023-05-18T08:57:19;102829.03;;;13.71;37.37
76680;BME280;65597;51.520;-0.224;2023-05-18T08:59:45;102824.43;;;13.77;37.27
76680;BME280;65597;51.520;-0.224;2023-05-18T09:02:09;102825.66;;;13.77;37.55
76680;BME280;65597;51.520;-0.224;2023-05-18T09:04:34;102826.49;;;14.09;37.75
76680;BME280;65597;51.520;-0.224;2023-05-18T09:07:01;102825.04;;;14.08;37.57
76680;BME280;65597;51.520;-0.224;2023-05-18T09:09:25;102824.22;;;14.17;36.55
76680;BME280;65597;51.520;-0.224;2023-05-18T09:11:53;102825.24;;;14.26;37.19
76680;BME280;65597;51.520;-0.224;2023-05-18T09:14:15;102823.53;;;14.32;37.53
76680;BME280;65597;51.520;-0.224;2023-05-18T09:16:40;102823.30;;;14.30;37.54
76680;BME280;65597;51.520;-0.224;2023-05-18T09:19:06;102818.78;;;14.38;37.12
76680;BME280;65597;51.520;-0.224;2023-05-18T09:21:31;102820.81;;;14.20;37.52
76680;BME280;65597;51.520;-0.224;2023-05-18T09:23:58;102816.31;;;14.61;36.69
76680;BME280;65597;51.520;-0.224;2023-05-18T09:26:22;102817.49;;;14.42;36.51
76680;BME280;65597;51.520;-0.224;2023-05-18T09:28:51;102816.57;;;14.36;36.77
76680;BME280;65597;51.520;-0.224;2023-05-18T09:31:16;102819.94;;;14.49;36.84
76680;BME280;65597;51.520;-0.224;2023-05-18T09:33:39;102819.60;;;14.40;36.13
76680;BME280;65597;51.520;-0.224;2023-05-18T09:36:06;102815.14;;;14.52;35.05
76680;BME280;65597;51.520;-0.224;2023-05-18T09:38:29;102817.43;;;14.42;35.35
76680;BME280;65597;51.520;-0.224;2023-05-18T09:40:54;102815.71;;;14.35;34.94
76680;BME280;65597;51.520;-0.224;2023-05-18T09:43:19;102814.94;;;14.32;35.02
76680;BME280;65597;51.520;-0.224;2023-05-18T09:45:47;102813.07;;;14.39;35.86
76680;BME280;65597;51.520;-0.224;2023-05-18T09:48:14;102810.00;;;14.40;35.17
76680;BME280;65597;51.520;-0.224;2023-05-18T09:50:36;102806.46;;;14.69;34.66
76680;BME280;65597;51.520;-0.224;2023-05-18T09:53:02;102808.37;;;14.84;34.99
76680;BME280;65597;51.520;-0.224;2023-05-18T09:55:26;102804.98;;;14.99;34.76
76680;BME280;65597;51.520;-0.224;2023-05-18T09:57:52;102802.58;;;15.09;34.73
76680;BME280;65597;51.520;-0.224;2023-05-18T10:00:19;102806.95;;;14.45;33.76
76680;BME280;65597;51.520;-0.224;2023-05-18T10:02:45;102806.82;;;14.90;33.30
76680;BME280;65597;51.520;-0.224;2023-05-18T10:05:18;102798.75;;;14.63;32.83
76680;BME280;65597;51.520;-0.224;2023-05-18T10:07:34;102798.31;;;14.73;33.62
76680;BME280;65597;51.520;-0.224;2023-05-18T10:10:00;102801.34;;;14.86;33.73
76680;BME280;65597;51.520;-0.224;2023-05-18T10:12:25;102797.46;;;15.14;32.33
76680;BME280;65597;51.520;-0.224;2023-05-18T10:14:50;102796.89;;;15.06;32.42
76680;BME280;65597;51.520;-0.224;2023-05-18T10:17:15;102796.42;;;15.37;33.55
76680;BME280;65597;51.520;-0.224;2023-05-18T10:19:43;102795.98;;;14.87;33.84
76680;BME280;65597;51.520;-0.224;2023-05-18T10:22:07;102795.82;;;15.33;34.26
76680;BME280;65597;51.520;-0.224;2023-05-18T10:24:40;102796.20;;;14.80;34.28
76680;BME280;65597;51.520;-0.224;2023-05-18T10:27:00;102795.69;;;15.23;33.73
76680;BME280;65597;51.520;-0.224;2023-05-18T10:29:22;102798.33;;;15.08;33.61
76680;BME280;65597;51.520;-0.224;2023-05-18T10:31:49;102800.83;;;15.19;33.91
76680;BME280;65597;51.520;-0.224;2023-05-18T10:34:13;102795.34;;;15.12;33.31
76680;BME280;65597;51.520;-0.224;2023-05-18T10:36:40;102796.71;;;15.28;32.48
76680;BME280;65597;51.520;-0.224;2023-05-18T10:39:03;102792.46;;;15.02;33.29
76680;BME280;65597;51.520;-0.224;2023-05-18T10:41:34;102790.41;;;15.29;32.57
76680;BME280;65597;51.520;-0.224;2023-05-18T10:43:54;102793.71;;;15.55;32.63
76680;BME280;65597;51.520;-0.224;2023-05-18T10:46:20;102793.12;;;15.43;33.19
76680;BME280;65597;51.520;-0.224;2023-05-18T10:48:46;102791.51;;;15.60;33.18
76680;BME280;65597;51.520;-0.224;2023-05-18T10:51:11;102793.40;;;15.67;33.09
76680;BME280;65597;51.520;-0.224;2023-05-18T10:53:37;102793.87;;;15.88;33.32
76680;BME280;65597;51.520;-0.224;2023-05-18T10:56:01;102795.91;;;15.98;32.50
76680;BME280;65597;51.520;-0.224;2023-05-18T10:58:28;102796.12;;;15.81;31.96
76680;BME280;65597;51.520;-0.224;2023-05-18T11:00:54;102798.41;;;16.05;33.19
76680;BME280;65597;51.520;-0.224;2023-05-18T11:03:18;102798.70;;;16.12;32.67
76680;BME280;65597;51.520;-0.224;2023-05-18T11:05:42;102797.24;;;15.70;31.55
76680;BME280;65597;51.520;-0.224;2023-05-18T11:08:08;102794.71;;;15.30;31.72
76680;BME280;65597;51.520;-0.224;2023-05-18T11:10:35;102796.42;;;15.71;31.71
76680;BME280;65597;51.520;-0.224;2023-05-18T11:12:59;102795.65;;;16.07;31.64
76680;BME280;65597;51.520;-0.224;2023-05-18T11:20:16;102795.01;;;15.93;31.74
76680;BME280;65597;51.520;-0.224;2023-05-18T11:22:45;102796.38;;;16.02;31.81
76680;BME280;65597;51.520;-0.224;2023-05-18T11:25:07;102797.77;;;16.02;31.84
76680;BME280;65597;51.520;-0.224;2023-05-18T11:27:30;102798.36;;;16.13;32.11
76680;BME280;65597;51.520;-0.224;2023-05-18T11:29:56;102792.28;;;16.16;31.24
76680;BME280;65597;51.520;-0.224;2023-05-18T11:32:22;102792.11;;;15.90;32.43
76680;BME280;65597;51.520;-0.224;2023-05-18T11:34:49;102794.13;;;16.06;32.40
76680;BME280;65597;51.520;-0.224;2023-05-18T11:37:13;102791.53;;;16.18;31.13
76680;BME280;65597;51.520;-0.224;2023-05-18T11:39:37;102786.02;;;16.41;30.22
76680;BME280;65597;51.520;-0.224;2023-05-18T11:42:06;102787.39;;;16.47;30.68
76680;BME280;65597;51.520;-0.224;2023-05-18T11:44:28;102786.46;;;16.32;31.00
76680;BME280;65597;51.520;-0.224;2023-05-18T11:46:55;102782.26;;;16.55;30.33
76680;BME280;65597;51.520;-0.224;2023-05-18T11:49:20;102782.70;;;16.42;31.06
76680;BME280;65597;51.520;-0.224;2023-05-18T11:51:54;102778.46;;;16.37;31.01
76680;BME280;65597;51.520;-0.224;2023-05-18T11:54:09;102779.19;;;16.37;31.68
76680;BME280;65597;51.520;-0.224;2023-05-18T11:56:34;102775.69;;;16.47;31.58
76680;BME280;65597;51.520;-0.224;2023-05-18T11:59:09;102774.81;;;16.57;30.62
76680;BME280;65597;51.520;-0.224;2023-05-18T12:01:26;102772.80;;;16.52;31.48
76680;BME280;65597;51.520;-0.224;2023-05-18T12:03:50;102774.06;;;16.26;31.48
76680;BME280;65597;51.520;-0.224;2023-05-18T12:06:16;102767.87;;;16.54;31.85
76680;BME280;65597;51.520;-0.224;2023-05-18T12:08:41;102768.36;;;16.68;31.21
76680;BME280;65597;51.520;-0.224;2023-05-18T12:11:07;102763.42;;;16.84;32.22
76680;BME280;65597;51.520;-0.224;2023-05-18T12:13:32;102759.35;;;16.27;30.67
76680;BME280;65597;51.520;-0.224;2023-05-18T12:16:04;102756.12;;;16.06;31.08
76680;BME280;65597;51.520;-0.224;2023-05-18T12:18:23;102756.08;;;16.48;31.16
76680;BME280;65597;51.520;-0.224;2023-05-18T12:20:48;102750.94;;;16.54;31.97
76680;BME280;65597;51.520;-0.224;2023-05-18T12:23:13;102752.58;;;16.53;31.69
76680;BME280;65597;51.520;-0.224;2023-05-18T12:25:39;102746.25;;;16.41;31.51
76680;BME280;65597;51.520;-0.224;2023-05-18T12:28:04;102748.98;;;16.54;32.44
76680;BME280;65597;51.520;-0.224;2023-05-18T12:30:29;102748.39;;;16.45;31.45
76680;BME280;65597;51.520;-0.224;2023-05-18T12:32:56;102740.54;;;15.84;31.20
76680;BME280;65597;51.520;-0.224;2023-05-18T12:35:21;102740.27;;;16.52;31.23
76680;BME280;65597;51.520;-0.224;2023-05-18T12:37:47;102736.96;;;16.67;32.09